Time;durP1;ratioP1;P1;durP2;ratioP2;P2;SDS_P1;SDS_P2;PMS_P1;PMS_P2;Temp;Humidity;BMP_temperature;BMP_pressure;BME280_temperature;BME280_humidity;BME280_pressure;Samples;Min_cycle;Max_cycle;Signal;HPM_P1;HPM_P2
2022/06/26 00:01:35;;;;;;;0.80;0.80;;;22.80;87.10;;;;;;5011155;28;20103;-64
2022/06/26 00:04:09;;;;;;;1.10;1.00;;;22.80;87.10;;;;;;5010430;28;20045;-64
2022/06/26 00:06:35;;;;;;;2.17;0.85;;;22.80;87.10;;;;;;5011218;28;20048;-64
2022/06/26 00:09:01;;;;;;;1.05;0.95;;;22.80;87.70;;;;;;5009676;28;20046;-63
2022/06/26 00:11:26;;;;;;;0.80;0.80;;;22.80;87.10;;;;;;5010724;28;20471;-64
2022/06/26 00:13:52;;;;;;;0.85;0.85;;;22.80;87.20;;;;;;5009683;28;20077;-63
2022/06/26 00:16:19;;;;;;;0.70;0.70;;;22.80;87.20;;;;;;5010917;28;20042;-64
2022/06/26 00:18:45;;;;;;;0.90;0.90;;;22.80;87.20;;;;;;5011057;28;20050;-64
2022/06/26 00:21:11;;;;;;;0.90;0.80;;;22.80;87.20;;;;;;5010281;28;20100;-63
2022/06/26 00:23:36;;;;;;;0.80;0.80;;;22.80;87.20;;;;;;5010911;28;20038;-64
2022/06/26 00:26:03;;;;;;;0.80;0.80;;;22.80;87.20;;;;;;5009342;28;20042;-64
2022/06/26 00:28:29;;;;;;;1.67;0.82;;;22.80;87.20;;;;;;5010431;28;20467;-64
2022/06/26 00:30:55;;;;;;;0.75;0.75;;;22.80;87.30;;;;;;5009703;28;20100;-63
2022/06/26 00:33:21;;;;;;;1.33;0.80;;;22.80;87.20;;;;;;5010861;28;20443;-63
2022/06/26 00:35:47;;;;;;;0.90;0.90;;;22.80;87.30;;;;;;5010582;28;20034;-64
2022/06/26 00:38:13;;;;;;;1.10;0.80;;;22.80;87.30;;;;;;5010323;28;20084;-63
2022/06/26 00:40:42;;;;;;;0.70;0.70;;;22.80;87.30;;;;;;4991766;28;20050;-64
2022/06/26 00:43:09;;;;;;;1.33;0.90;;;22.80;87.30;;;;;;5009613;28;20475;-64
2022/06/26 00:45:35;;;;;;;1.38;0.85;;;22.80;87.30;;;;;;5010146;28;20048;-64
2022/06/26 00:48:01;;;;;;;0.90;0.80;;;22.80;87.30;;;;;;5010255;28;20053;-63
2022/06/26 00:50:27;;;;;;;1.13;0.90;;;22.80;87.30;;;;;;5010288;28;20424;-64
2022/06/26 00:52:54;;;;;;;0.70;0.70;;;22.80;87.30;;;;;;5010023;28;20048;-63
2022/06/26 00:55:20;;;;;;;2.33;0.88;;;22.80;87.90;;;;;;5009604;28;20099;-63
2022/06/26 00:57:47;;;;;;;1.10;0.90;;;22.80;87.30;;;;;;5010733;28;20042;-64
2022/06/26 01:00:14;;;;;;;0.90;0.90;;;22.80;87.30;;;;;;5009121;28;20077;-64
2022/06/26 01:02:41;;;;;;;1.13;0.98;;;22.80;87.40;;;;;;5010472;28;20084;-64
2022/06/26 01:05:08;;;;;;;1.00;0.90;;;22.70;87.30;;;;;;4992417;28;20037;-64
2022/06/26 01:07:34;;;;;;;1.33;0.82;;;22.70;87.30;;;;;;5010644;28;20045;-64
2022/06/26 01:10:01;;;;;;;0.93;0.90;;;22.80;87.40;;;;;;4994294;28;20046;-63
2022/06/26 01:12:27;;;;;;;1.65;0.85;;;22.80;87.50;;;;;;5014080;28;20380;-64
2022/06/26 01:14:53;;;;;;;0.80;0.80;;;22.70;87.40;;;;;;5012384;28;20042;-63
2022/06/26 01:17:19;;;;;;;1.25;1.10;;;22.70;87.40;;;;;;5013932;28;20042;-64
2022/06/26 01:19:46;;;;;;;0.80;0.80;;;22.80;87.50;;;;;;4996396;28;20073;-64
2022/06/26 01:22:11;;;;;;;0.60;0.60;;;22.70;87.40;;;;;;5013477;28;20133;-64
2022/06/26 01:24:37;;;;;;;1.00;1.00;;;22.70;87.40;;;;;;5012871;28;20495;-64
2022/06/26 01:27:04;;;;;;;1.25;0.80;;;22.70;87.50;;;;;;5013026;28;20046;-63
2022/06/26 01:29:29;;;;;;;1.20;0.90;;;22.70;87.40;;;;;;5012741;28;20046;-64
2022/06/26 01:31:55;;;;;;;1.20;1.10;;;22.70;87.50;;;;;;5012784;28;20042;-63
2022/06/26 01:34:21;;;;;;;1.02;0.90;;;22.70;87.50;;;;;;5013396;28;20042;-64
2022/06/26 01:36:47;;;;;;;1.00;0.90;;;22.70;87.50;;;;;;5013645;28;20037;-64
2022/06/26 01:39:13;;;;;;;1.20;0.90;;;22.70;87.50;;;;;;5011963;28;20081;-63
2022/06/26 01:41:39;;;;;;;0.98;0.73;;;22.80;87.60;;;;;;5013454;28;20100;-64
2022/06/26 01:44:07;;;;;;;1.08;1.00;;;22.70;87.50;;;;;;5012026;28;20058;-64
2022/06/26 01:46:34;;;;;;;1.30;1.00;;;22.70;87.50;;;;;;4996251;28;20430;-64
2022/06/26 01:49:00;;;;;;;1.58;0.90;;;22.70;87.50;;;;;;5012759;28;20053;-63
2022/06/26 01:51:25;;;;;;;1.10;1.00;;;22.70;87.50;;;;;;4996184;28;20052;-64
2022/06/26 01:53:51;;;;;;;0.90;0.77;;;22.70;87.50;;;;;;5013246;28;20054;-64
2022/06/26 01:56:17;;;;;;;0.88;0.88;;;22.70;87.50;;;;;;5011898;28;20058;-64
2022/06/26 01:58:44;;;;;;;0.80;0.80;;;22.70;87.50;;;;;;5012841;28;20445;-64
2022/06/26 02:01:10;;;;;;;1.80;1.02;;;22.70;88.20;;;;;;5012100;28;20129;-64
2022/06/26 02:03:36;;;;;;;1.27;0.90;;;22.70;87.50;;;;;;5012996;28;20128;-64
2022/06/26 02:06:01;;;;;;;1.10;1.00;;;22.70;87.60;;;;;;5012410;28;20553;-64
2022/06/26 02:08:27;;;;;;;1.10;0.82;;;22.70;87.60;;;;;;4995184;28;20050;-64
2022/06/26 02:13:37;;;;;;;0.98;0.98;;;22.80;87.60;;;;;;5012499;28;20061;-64
2022/06/26 02:16:12;;;;;;;0.80;0.80;;;22.70;87.60;;;;;;5011759;28;20046;-64
2022/06/26 02:18:40;;;;;;;1.02;0.90;;;22.70;87.60;;;;;;5012935;28;20038;-64
2022/06/26 02:21:08;;;;;;;0.75;0.75;;;22.70;87.60;;;;;;5011453;28;20133;-64
2022/06/26 02:23:35;;;;;;;0.88;0.88;;;22.70;87.60;;;;;;5012983;28;20081;-64
2022/06/26 02:26:01;;;;;;;1.08;0.98;;;22.70;87.60;;;;;;5011165;28;20129;-63
2022/06/26 02:28:26;;;;;;;1.00;0.82;;;22.70;87.60;;;;;;5012500;28;20140;-64
2022/06/26 02:30:52;;;;;;;0.90;0.90;;;22.70;87.60;;;;;;5011964;28;20045;-64
2022/06/26 02:33:19;;;;;;;0.80;0.80;;;22.70;87.60;;;;;;5012024;28;20885;-64
2022/06/26 02:35:46;;;;;;;1.23;1.00;;;22.70;87.60;;;;;;4995087;28;20052;-64
2022/06/26 02:38:12;;;;;;;1.05;1.05;;;22.70;87.60;;;;;;4994692;28;20065;-64
2022/06/26 02:40:38;;;;;;;1.15;0.80;;;22.70;87.60;;;;;;5011120;28;20310;-64
2022/06/26 02:43:04;;;;;;;0.98;0.80;;;22.70;87.60;;;;;;5011921;28;20688;-64
2022/06/26 02:45:29;;;;;;;1.15;1.10;;;22.70;87.70;;;;;;5011436;28;20034;-64
2022/06/26 02:47:55;;;;;;;1.15;1.10;;;22.70;87.70;;;;;;5012597;28;20104;-64
2022/06/26 02:50:20;;;;;;;0.98;0.80;;;22.70;87.70;;;;;;5011629;28;20125;-64
2022/06/26 02:52:46;;;;;;;1.00;0.93;;;22.70;87.70;;;;;;5012262;28;20103;-64
2022/06/26 02:55:13;;;;;;;3.88;1.10;;;22.70;87.70;;;;;;5010513;28;20049;-64
2022/06/26 02:57:39;;;;;;;1.67;0.68;;;22.70;87.70;;;;;;5012215;28;20112;-64
2022/06/26 03:00:05;;;;;;;0.70;0.70;;;22.70;87.80;;;;;;5010716;28;20129;-64
2022/06/26 03:02:31;;;;;;;0.80;0.80;;;22.70;87.80;;;;;;5011894;28;20045;-64
2022/06/26 03:04:57;;;;;;;0.95;0.85;;;22.70;87.80;;;;;;5011958;28;20034;-64
2022/06/26 03:07:22;;;;;;;1.10;1.00;;;22.70;87.80;;;;;;5011795;28;20044;-64
2022/06/26 03:09:48;;;;;;;1.17;1.00;;;22.70;87.80;;;;;;5010682;28;20053;-64
2022/06/26 03:12:14;;;;;;;0.80;0.80;;;22.70;87.80;;;;;;5011173;28;20128;-64
2022/06/26 03:14:40;;;;;;;1.42;1.00;;;22.70;87.80;;;;;;5010704;28;20440;-64
2022/06/26 03:17:06;;;;;;;1.73;0.80;;;22.70;87.80;;;;;;5011199;28;20046;-64
2022/06/26 03:19:32;;;;;;;1.25;1.00;;;22.70;87.80;;;;;;5011586;28;20056;-64
2022/06/26 03:21:58;;;;;;;1.00;0.90;;;22.70;87.80;;;;;;5011818;28;20037;-64
2022/06/26 03:24:24;;;;;;;1.20;0.90;;;22.70;87.80;;;;;;5010249;28;20133;-64
2022/06/26 03:26:50;;;;;;;1.10;1.00;;;22.70;87.80;;;;;;5011298;28;20546;-64
2022/06/26 03:29:16;;;;;;;0.95;0.95;;;22.70;87.90;;;;;;4992513;28;20056;-64
2022/06/26 03:31:41;;;;;;;0.90;0.90;;;22.70;87.90;;;;;;5011405;28;20044;-64
2022/06/26 03:34:07;;;;;;;1.48;1.08;;;22.70;87.90;;;;;;4993254;28;20049;-63
2022/06/26 03:36:34;;;;;;;1.20;1.05;;;22.70;87.90;;;;;;4994012;28;20448;-64
2022/06/26 03:39:00;;;;;;;1.02;0.90;;;22.70;87.90;;;;;;5010640;28;20055;-63
2022/06/26 03:41:27;;;;;;;0.82;0.82;;;22.70;87.90;;;;;;5010406;28;20136;-64
2022/06/26 03:43:53;;;;;;;1.30;1.00;;;22.70;87.90;;;;;;5010130;28;20487;-64
2022/06/26 03:46:19;;;;;;;0.90;0.90;;;22.70;87.90;;;;;;5010715;28;20048;-64
2022/06/26 03:48:45;;;;;;;1.00;0.80;;;22.70;87.90;;;;;;4993778;28;20503;-64
2022/06/26 03:51:11;;;;;;;2.38;1.00;;;22.70;88.00;;;;;;5010612;28;20051;-63
2022/06/26 03:53:38;;;;;;;1.02;0.90;;;22.70;88.00;;;;;;5011266;28;20076;-64
2022/06/26 03:56:04;;;;;;;0.80;0.80;;;22.70;88.00;;;;;;5009713;28;20038;-63
2022/06/26 03:58:30;;;;;;;0.80;0.80;;;22.70;88.00;;;;;;5010832;28;20084;-64
2022/06/26 04:00:57;;;;;;;1.15;0.77;;;22.70;88.00;;;;;;5010479;28;20042;-64
2022/06/26 04:03:22;;;;;;;1.15;1.05;;;22.70;88.00;;;;;;5010644;28;20061;-64
2022/06/26 04:05:48;;;;;;;1.67;1.00;;;22.70;88.00;;;;;;5010983;28;20041;-64
2022/06/26 04:08:14;;;;;;;0.80;0.80;;;22.70;88.00;;;;;;5010624;28;20084;-64
2022/06/26 04:10:40;;;;;;;0.75;0.75;;;22.70;88.00;;;;;;5010021;28;20046;-63
2022/06/26 04:13:10;;;;;;;1.33;0.80;;;22.70;88.60;;;;;;4993008;28;20045;-63
2022/06/26 04:15:37;;;;;;;0.80;0.80;;;22.60;88.00;;;;;;5010571;28;20260;-64
2022/06/26 04:18:04;;;;;;;0.77;0.77;;;22.70;88.10;;;;;;5010838;28;20053;-63
2022/06/26 04:20:30;;;;;;;1.00;0.80;;;22.60;88.00;;;;;;5010544;28;20493;-64
2022/06/26 04:23:00;;;;;;;1.35;1.05;;;22.60;88.00;;;;;;5011019;28;20499;-64
2022/06/26 04:25:27;;;;;;;1.38;0.95;;;22.60;88.10;;;;;;4992016;28;20053;-64
2022/06/26 04:27:53;;;;;;;1.00;0.90;;;22.60;88.10;;;;;;5010999;28;20476;-64
2022/06/26 04:30:19;;;;;;;1.00;0.90;;;22.60;88.10;;;;;;5009267;28;20049;-63
2022/06/26 04:32:45;;;;;;;1.20;1.10;;;22.60;88.10;;;;;;5010920;28;20044;-64
2022/06/26 04:35:11;;;;;;;0.93;0.75;;;22.60;88.10;;;;;;5010050;28;20642;-64
2022/06/26 04:37:38;;;;;;;0.98;0.85;;;22.60;88.10;;;;;;5010538;28;20045;-64
2022/06/26 04:40:05;;;;;;;0.80;0.80;;;22.60;88.10;;;;;;5009468;28;20365;-63
2022/06/26 04:42:31;;;;;;;0.77;0.77;;;22.60;88.10;;;;;;5010392;28;20188;-64
2022/06/26 04:44:58;;;;;;;0.98;0.90;;;22.60;88.10;;;;;;5013077;28;20410;-64
2022/06/26 04:47:23;;;;;;;0.80;0.80;;;22.60;88.10;;;;;;5014047;28;20042;-64
2022/06/26 04:49:49;;;;;;;1.42;1.00;;;22.60;88.10;;;;;;5014641;28;20050;-64
2022/06/26 04:52:15;;;;;;;1.10;1.00;;;22.60;88.10;;;;;;5014029;28;20125;-63
2022/06/26 04:54:42;;;;;;;0.70;0.70;;;22.60;88.10;;;;;;5013324;28;20038;-64
2022/06/26 04:57:08;;;;;;;0.75;0.75;;;22.60;88.10;;;;;;5013828;28;20085;-63
2022/06/26 04:59:34;;;;;;;1.00;0.90;;;22.60;88.10;;;;;;5013444;28;20139;-64
2022/06/26 05:02:00;;;;;;;0.90;0.90;;;22.60;88.10;;;;;;5013669;28;20173;-64
2022/06/26 05:04:25;;;;;;;1.02;0.93;;;22.60;88.10;;;;;;5013328;28;20042;-64
2022/06/26 05:06:51;;;;;;;1.55;0.88;;;22.60;88.10;;;;;;5013897;28;20515;-64
2022/06/26 05:09:17;;;;;;;0.77;0.77;;;22.60;88.10;;;;;;5012288;28;20116;-64
2022/06/26 05:11:46;;;;;;;0.75;0.70;;;22.70;88.20;;;;;;4996156;28;20046;-64
2022/06/26 05:14:11;;;;;;;0.77;0.75;;;22.60;88.10;;;;;;4995152;28;20037;-64
2022/06/26 05:16:37;;;;;;;1.23;0.90;;;22.60;88.10;;;;;;5013779;28;20048;-64
2022/06/26 05:19:03;;;;;;;1.00;0.90;;;22.70;88.20;;;;;;4996612;28;20046;-64
2022/06/26 05:21:29;;;;;;;0.80;0.77;;;22.60;88.10;;;;;;5013444;28;20556;-64
2022/06/26 05:23:55;;;;;;;1.17;1.02;;;22.60;88.10;;;;;;5013710;28;20115;-64
2022/06/26 05:26:22;;;;;;;1.13;0.90;;;22.60;88.10;;;;;;5012848;28;20635;-65
2022/06/26 05:28:48;;;;;;;0.90;0.90;;;22.60;88.10;;;;;;5013216;28;20081;-64
2022/06/26 05:31:14;;;;;;;1.05;0.90;;;22.60;88.10;;;;;;5012941;28;20052;-65
2022/06/26 05:33:40;;;;;;;0.85;0.75;;;22.60;88.10;;;;;;5013769;28;20124;-65
2022/06/26 05:36:07;;;;;;;0.85;0.85;;;22.60;88.10;;;;;;5013295;28;20042;-64
2022/06/26 05:38:35;;;;;;;0.70;0.70;;;22.70;88.20;;;;;;5013098;28;20054;-65
2022/06/26 05:41:01;;;;;;;1.77;1.00;;;22.70;88.20;;;;;;5012255;28;20045;-64
2022/06/26 05:43:27;;;;;;;0.82;0.82;;;22.70;88.20;;;;;;5012442;28;20064;-64
2022/06/26 05:45:53;;;;;;;1.15;0.82;;;22.70;88.30;;;;;;5012964;28;20120;-64
2022/06/26 05:48:19;;;;;;;1.10;0.95;;;22.70;88.20;;;;;;5012904;28;20041;-64
2022/06/26 05:50:45;;;;;;;0.70;0.70;;;22.70;88.30;;;;;;5013233;28;20052;-64
2022/06/26 05:53:10;;;;;;;1.35;0.90;;;22.70;88.30;;;;;;5012918;28;20088;-63
2022/06/26 05:55:38;;;;;;;0.68;0.68;;;22.70;88.30;;;;;;4993627;28;20041;-64
2022/06/26 05:58:05;;;;;;;1.00;0.90;;;22.70;88.20;;;;;;5013241;28;20444;-64
2022/06/26 06:00:32;;;;;;;0.73;0.73;;;22.70;88.20;;;;;;4994411;28;20215;-64
2022/06/26 06:02:58;;;;;;;1.33;0.80;;;22.70;88.30;;;;;;5013502;28;20057;-64
2022/06/26 06:05:25;;;;;;;1.05;0.90;;;22.70;88.20;;;;;;5012417;28;20042;-65
2022/06/26 06:07:52;;;;;;;1.50;0.73;;;22.70;88.30;;;;;;5013161;28;20124;-65
2022/06/26 06:10:19;;;;;;;1.23;0.93;;;22.70;88.30;;;;;;5011338;28;20053;-64
2022/06/26 06:12:46;;;;;;;1.17;0.95;;;22.70;88.30;;;;;;5013077;28;20057;-64
2022/06/26 06:15:12;;;;;;;1.85;0.90;;;22.70;88.30;;;;;;5011567;28;20064;-63
2022/06/26 06:17:41;;;;;;;0.93;0.90;;;22.70;88.30;;;;;;5013116;28;20056;-64
2022/06/26 06:20:13;;;;;;;2.20;1.10;;;22.70;88.30;;;;;;5012708;28;20136;-64
2022/06/26 06:22:45;;;;;;;0.70;0.70;;;22.70;88.30;;;;;;4995676;28;20119;-65
2022/06/26 06:25:11;;;;;;;2.05;0.90;;;22.70;88.30;;;;;;5011556;28;20100;-64
2022/06/26 06:27:37;;;;;;;0.90;0.90;;;22.80;88.30;;;;;;5012461;28;20056;-64
2022/06/26 06:30:05;;;;;;;1.10;1.00;;;22.70;88.30;;;;;;4994427;28;20434;-64
2022/06/26 06:32:31;;;;;;;1.95;1.30;;;22.70;88.30;;;;;;5011673;28;20121;-64
2022/06/26 06:34:56;;;;;;;0.80;0.80;;;22.70;88.30;;;;;;4994693;28;20045;-64
2022/06/26 06:37:22;;;;;;;1.17;1.08;;;22.70;88.30;;;;;;5012138;28;20108;-64
2022/06/26 06:39:48;;;;;;;1.02;0.93;;;22.70;88.30;;;;;;5011027;28;20125;-64
2022/06/26 06:42:14;;;;;;;1.13;1.00;;;22.70;88.30;;;;;;4994366;28;20104;-63
2022/06/26 06:44:39;;;;;;;1.23;0.80;;;22.70;88.30;;;;;;5011343;28;20052;-64
2022/06/26 06:47:06;;;;;;;1.30;1.20;;;22.70;88.30;;;;;;4994823;28;20068;-64
2022/06/26 06:49:31;;;;;;;1.98;0.90;;;22.70;88.30;;;;;;5011613;28;20037;-64
2022/06/26 06:51:57;;;;;;;1.00;0.90;;;22.70;88.30;;;;;;5012321;28;20689;-64
2022/06/26 06:54:23;;;;;;;1.10;1.00;;;22.70;88.30;;;;;;5010561;28;20057;-64
2022/06/26 06:56:49;;;;;;;1.45;0.90;;;22.70;88.30;;;;;;5012111;28;20046;-64
2022/06/26 06:59:15;;;;;;;0.82;0.70;;;22.70;88.30;;;;;;5010939;28;20046;-64
2022/06/26 07:01:40;;;;;;;2.08;1.35;;;22.70;88.30;;;;;;5011897;28;20129;-65
2022/06/26 07:04:07;;;;;;;0.75;0.75;;;22.70;88.30;;;;;;5011877;28;20132;-64
2022/06/26 07:06:33;;;;;;;0.88;0.88;;;22.70;88.30;;;;;;5011284;28;20553;-65
2022/06/26 07:08:58;;;;;;;1.15;0.82;;;22.70;88.30;;;;;;5011276;28;20124;-64
2022/06/26 07:11:24;;;;;;;1.10;0.95;;;22.70;88.30;;;;;;5010948;28;20468;-64
2022/06/26 07:13:50;;;;;;;1.33;0.90;;;22.70;88.30;;;;;;5010935;28;20045;-63
2022/06/26 07:16:16;;;;;;;1.20;1.08;;;22.70;88.30;;;;;;5011369;28;20049;-64
2022/06/26 07:18:42;;;;;;;1.10;1.00;;;22.80;88.40;;;;;;5011725;28;20123;-64
2022/06/26 07:21:08;;;;;;;0.95;0.90;;;22.80;88.30;;;;;;5011589;28;20046;-65
2022/06/26 07:23:33;;;;;;;1.10;0.82;;;22.80;88.40;;;;;;5010963;28;20077;-64
2022/06/26 07:25:59;;;;;;;0.80;0.80;;;22.80;88.40;;;;;;5010621;28;20045;-64
2022/06/26 07:28:25;;;;;;;1.45;1.00;;;22.70;88.30;;;;;;5010707;28;20046;-64
2022/06/26 07:30:52;;;;;;;1.33;0.90;;;22.70;88.30;;;;;;5010920;28;20380;-65
2022/06/26 07:36:02;;;;;;;0.70;0.70;;;22.70;88.30;;;;;;5011344;28;20050;-65
2022/06/26 07:38:28;;;;;;;1.00;1.00;;;22.80;88.40;;;;;;5010976;28;20049;-64
2022/06/26 07:40:54;;;;;;;1.33;1.00;;;22.80;88.40;;;;;;4992618;28;20080;-64
2022/06/26 07:43:20;;;;;;;0.95;0.90;;;22.80;88.40;;;;;;5010454;28;20050;-64
2022/06/26 07:45:45;;;;;;;1.25;1.15;;;22.80;88.40;;;;;;4993466;28;20105;-64
2022/06/26 07:48:11;;;;;;;1.98;1.20;;;22.80;88.40;;;;;;5011422;28;20052;-65
2022/06/26 07:50:37;;;;;;;1.13;1.00;;;22.80;88.30;;;;;;5010704;28;20056;-64
2022/06/26 07:53:03;;;;;;;1.17;1.05;;;22.80;88.30;;;;;;4977952;28;20050;-64
2022/06/26 07:55:28;;;;;;;1.58;1.20;;;22.80;88.30;;;;;;5009510;28;20049;-64
2022/06/26 07:57:54;;;;;;;1.17;0.95;;;22.80;88.30;;;;;;5011320;28;20046;-64
2022/06/26 08:00:20;;;;;;;1.95;1.05;;;22.80;88.30;;;;;;4992227;28;20045;-64
2022/06/26 08:02:46;;;;;;;1.30;1.00;;;22.80;88.30;;;;;;5011209;28;20134;-65
2022/06/26 08:05:12;;;;;;;1.17;1.05;;;22.80;88.30;;;;;;5010936;28;20077;-65
2022/06/26 08:07:38;;;;;;;1.17;1.00;;;22.80;88.30;;;;;;5010534;28;20038;-64
2022/06/26 08:10:04;;;;;;;1.88;1.30;;;22.80;88.30;;;;;;4992560;28;20053;-65
2022/06/26 08:12:30;;;;;;;1.52;1.10;;;22.80;88.30;;;;;;5010432;28;20173;-64
2022/06/26 08:14:55;;;;;;;2.17;1.40;;;22.80;88.30;;;;;;5010138;28;20489;-64
2022/06/26 08:17:21;;;;;;;1.30;1.15;;;22.80;88.20;;;;;;5010439;28;20049;-64
2022/06/26 08:19:48;;;;;;;2.65;1.10;;;22.80;88.30;;;;;;5014287;28;20052;-64
2022/06/26 08:22:14;;;;;;;1.20;1.00;;;22.80;88.20;;;;;;5015151;28;20042;-64
2022/06/26 08:24:41;;;;;;;1.23;1.02;;;22.80;88.20;;;;;;5013397;28;20041;-64
2022/06/26 08:27:08;;;;;;;2.33;1.20;;;22.80;88.20;;;;;;4997509;28;20085;-64
2022/06/26 08:29:34;;;;;;;0.98;0.85;;;22.80;88.80;;;;;;5013387;28;20061;-64
2022/06/26 08:32:00;;;;;;;1.15;1.05;;;22.80;88.20;;;;;;5014803;28;20061;-64
2022/06/26 08:34:26;;;;;;;0.95;0.82;;;22.80;88.30;;;;;;5014118;28;20050;-64
2022/06/26 08:36:53;;;;;;;1.42;1.00;;;22.80;88.20;;;;;;5014859;28;20096;-65
2022/06/26 08:39:20;;;;;;;1.30;1.20;;;22.80;88.20;;;;;;5013574;28;20045;-64
2022/06/26 08:41:46;;;;;;;1.60;1.00;;;22.80;88.10;;;;;;5013960;28;20142;-64
2022/06/26 08:44:13;;;;;;;1.30;1.15;;;22.90;88.20;;;;;;5013725;28;20045;-65
2022/06/26 08:46:41;;;;;;;1.55;1.17;;;22.90;88.20;;;;;;4996332;28;20494;-64
2022/06/26 08:49:20;;;;;;;1.60;0.90;;;22.90;88.20;;;;;;5014409;28;20041;-64
2022/06/26 08:51:48;;;;;;;1.23;1.00;;;22.90;88.20;;;;;;5014006;28;20462;-65
2022/06/26 08:54:15;;;;;;;0.93;0.85;;;22.90;88.10;;;;;;5012987;28;20760;-64
2022/06/26 08:56:43;;;;;;;1.13;1.02;;;22.90;88.10;;;;;;5013952;28;20045;-65
2022/06/26 08:59:10;;;;;;;1.20;1.10;;;22.90;88.10;;;;;;5013343;28;20104;-64
2022/06/26 09:01:37;;;;;;;0.98;0.98;;;22.90;88.00;;;;;;5013783;28;20430;-65
2022/06/26 09:04:04;;;;;;;1.30;1.10;;;22.90;88.10;;;;;;5014139;28;20046;-64
2022/06/26 09:06:35;;;;;;;1.10;1.00;;;22.90;88.00;;;;;;5013664;28;20502;-64
2022/06/26 09:09:22;;;;;;;1.23;1.10;;;22.90;88.00;;;;;;5013238;28;20038;-64
2022/06/26 09:11:49;;;;;;;1.20;1.00;;;22.90;88.00;;;;;;5013833;28;20049;-64
2022/06/26 09:14:15;;;;;;;1.08;0.85;;;22.90;88.00;;;;;;5012855;28;20506;-64
2022/06/26 09:16:46;;;;;;;1.33;0.95;;;22.90;87.90;;;;;;5013520;28;20449;-64
2022/06/26 09:19:20;;;;;;;1.15;1.05;;;22.90;88.00;;;;;;5014090;28;20060;-64
2022/06/26 09:21:48;;;;;;;1.20;0.90;;;22.90;87.90;;;;;;4996090;28;20046;-64
2022/06/26 09:24:16;;;;;;;1.63;1.13;;;22.90;87.90;;;;;;5012862;28;20129;-64
2022/06/26 09:26:44;;;;;;;1.25;1.15;;;22.90;87.90;;;;;;5013260;28;20046;-64
2022/06/26 09:29:19;;;;;;;1.02;0.90;;;22.90;87.90;;;;;;5012614;28;20092;-64
2022/06/26 09:31:45;;;;;;;1.05;0.95;;;22.90;87.80;;;;;;4995658;28;20038;-64
2022/06/26 09:34:22;;;;;;;1.10;1.00;;;22.90;87.80;;;;;;5013538;28;20046;-64
2022/06/26 09:36:58;;;;;;;1.17;1.10;;;22.90;87.80;;;;;;5013193;28;20123;-64
2022/06/26 09:39:24;;;;;;;1.23;0.95;;;22.90;87.80;;;;;;4979030;28;20454;-64
2022/06/26 09:41:50;;;;;;;1.27;1.10;;;22.90;87.80;;;;;;5013310;28;20058;-64
2022/06/26 09:44:23;;;;;;;2.05;1.20;;;22.90;87.80;;;;;;5012696;28;20065;-64
2022/06/26 09:46:49;;;;;;;1.02;0.95;;;22.90;87.70;;;;;;5012897;28;20050;-65
2022/06/26 09:49:17;;;;;;;1.05;0.80;;;22.90;87.80;;;;;;5013265;28;20049;-64
2022/06/26 09:51:43;;;;;;;1.23;1.13;;;22.90;87.70;;;;;;5012913;28;20129;-64
2022/06/26 09:54:09;;;;;;;0.88;0.88;;;22.90;87.70;;;;;;5012095;28;20529;-64
2022/06/26 09:56:36;;;;;;;1.35;1.05;;;22.90;87.70;;;;;;5012724;28;20046;-65
2022/06/26 09:59:02;;;;;;;0.93;0.93;;;22.90;87.70;;;;;;5012304;28;20065;-64
2022/06/26 10:07:02;;;;;;;1.75;1.25;;;22.90;87.70;;;;;;5013271;28;20108;-64
2022/06/26 10:09:29;;;;;;;1.10;1.00;;;22.90;87.80;;;;;;5011611;28;20131;-64
2022/06/26 10:11:58;;;;;;;1.70;0.95;;;22.90;87.60;;;;;;5003633;28;20049;-64
2022/06/26 10:14:28;;;;;;;1.40;1.20;;;22.90;87.60;;;;;;4974822;28;20576;-66
2022/06/26 10:17:19;;;;;;;1.15;1.05;;;22.90;87.70;;;;;;4992756;28;20042;-64
2022/06/26 10:20:03;;;;;;;1.35;1.05;;;22.90;87.60;;;;;;4992776;28;20042;-64
2022/06/26 10:22:45;;;;;;;1.20;1.10;;;22.90;87.60;;;;;;4993149;28;20046;-64
2022/06/26 10:25:24;;;;;;;1.40;1.17;;;22.90;87.60;;;;;;4974975;28;20057;-64
2022/06/26 10:27:51;;;;;;;0.98;0.98;;;22.90;87.60;;;;;;4992853;28;20049;-64
2022/06/26 10:30:19;;;;;;;1.25;1.00;;;22.90;87.60;;;;;;4992151;28;20065;-64
2022/06/26 10:32:46;;;;;;;0.80;0.80;;;22.90;87.60;;;;;;4975330;28;20045;-64
2022/06/26 10:35:13;;;;;;;1.13;0.80;;;22.90;87.60;;;;;;4992773;28;20042;-64
2022/06/26 10:37:46;;;;;;;1.10;0.95;;;22.90;87.60;;;;;;4992507;28;20042;-64
2022/06/26 10:43:15;;;;;;;0.88;0.82;;;22.90;87.50;;;;;;4992442;28;20407;-64
2022/06/26 10:45:42;;;;;;;0.85;0.85;;;22.90;87.50;;;;;;4974677;28;20492;-64
2022/06/26 10:48:19;;;;;;;0.95;0.95;;;22.90;87.50;;;;;;4975346;28;20169;-64
2022/06/26 10:50:56;;;;;;;1.08;0.82;;;22.90;87.50;;;;;;4992124;28;20054;-64
2022/06/26 10:53:28;;;;;;;1.42;1.13;;;22.90;87.50;;;;;;4992700;28;20054;-64
2022/06/26 10:55:59;;;;;;;1.00;0.73;;;22.90;87.50;;;;;;4990976;28;20047;-64
2022/06/26 10:58:27;;;;;;;0.90;0.80;;;22.90;87.50;;;;;;4992170;28;20465;-64
2022/06/26 11:00:55;;;;;;;0.80;0.80;;;22.90;87.50;;;;;;4991118;28;20062;-64
2022/06/26 11:03:21;;;;;;;1.00;0.90;;;22.90;87.50;;;;;;4992548;28;20515;-64
2022/06/26 11:06:05;;;;;;;0.70;0.70;;;22.90;87.50;;;;;;4991817;28;20042;-64
2022/06/26 11:08:36;;;;;;;2.03;0.98;;;22.90;87.50;;;;;;4992345;28;20495;-64
2022/06/26 11:11:08;;;;;;;1.65;0.98;;;22.90;87.50;;;;;;4991122;28;20121;-65
2022/06/26 11:13:46;;;;;;;0.90;0.90;;;22.90;87.50;;;;;;4991467;28;20052;-64
2022/06/26 11:16:12;;;;;;;0.90;0.80;;;22.90;87.50;;;;;;4991627;28;20046;-65
2022/06/26 11:18:37;;;;;;;1.08;0.90;;;22.90;87.50;;;;;;4990763;28;20053;-64
2022/06/26 11:21:04;;;;;;;0.90;0.90;;;22.90;87.50;;;;;;4992041;28;20042;-64
2022/06/26 11:23:32;;;;;;;1.30;1.00;;;22.90;87.50;;;;;;4992040;28;20042;-64
2022/06/26 11:26:00;;;;;;;1.77;0.95;;;22.90;87.50;;;;;;4973538;28;20080;-64
2022/06/26 11:28:28;;;;;;;1.05;0.95;;;22.90;87.50;;;;;;4991701;28;20683;-64
2022/06/26 11:30:54;;;;;;;1.17;0.93;;;22.90;87.50;;;;;;4990827;28;20050;-64
2022/06/26 11:33:28;;;;;;;1.50;1.10;;;22.90;87.50;;;;;;4991997;28;20551;-64
2022/06/26 11:35:55;;;;;;;1.00;0.90;;;22.90;87.50;;;;;;4991156;28;20104;-64
2022/06/26 11:38:22;;;;;;;1.42;0.85;;;22.90;87.50;;;;;;4990682;28;20125;-64
2022/06/26 11:40:48;;;;;;;0.77;0.77;;;22.90;87.50;;;;;;4989958;28;20042;-64
2022/06/26 11:43:15;;;;;;;1.35;0.90;;;22.90;87.50;;;;;;4974041;28;20057;-64
2022/06/26 11:45:43;;;;;;;1.10;1.00;;;22.90;87.50;;;;;;4989180;28;20756;-64
2022/06/26 11:48:13;;;;;;;0.93;0.93;;;22.90;87.50;;;;;;4974642;28;20384;-64
2022/06/26 11:50:39;;;;;;;1.85;0.90;;;22.90;87.50;;;;;;4991068;28;20050;-64
2022/06/26 11:53:06;;;;;;;0.70;0.70;;;22.90;87.50;;;;;;4990866;28;20051;-64
2022/06/26 11:55:33;;;;;;;0.90;0.90;;;22.90;87.50;;;;;;4990541;28;20038;-64
2022/06/26 11:58:02;;;;;;;0.80;0.80;;;22.90;87.40;;;;;;4991211;28;20462;-64
2022/06/26 12:00:28;;;;;;;2.13;1.05;;;22.90;87.40;;;;;;4990377;28;20045;-64
2022/06/26 12:02:54;;;;;;;0.80;0.77;;;22.90;87.40;;;;;;4991145;28;20046;-64
2022/06/26 12:05:30;;;;;;;1.00;0.90;;;23.00;87.50;;;;;;4991413;28;20039;-64
2022/06/26 12:07:56;;;;;;;2.67;1.55;;;22.90;87.40;;;;;;4973777;28;20064;-64
2022/06/26 12:10:27;;;;;;;0.90;0.80;;;22.90;87.40;;;;;;4990190;28;20134;-65
2022/06/26 12:12:53;;;;;;;1.20;1.00;;;22.90;87.40;;;;;;4990994;28;20058;-64
2022/06/26 12:15:19;;;;;;;2.35;1.33;;;23.00;87.50;;;;;;4990078;28;20105;-65
2022/06/26 12:18:00;;;;;;;0.90;0.90;;;22.90;87.40;;;;;;4990853;28;20149;-64
2022/06/26 12:20:27;;;;;;;0.80;0.80;;;23.00;87.50;;;;;;4991036;28;20375;-65
2022/06/26 12:22:56;;;;;;;1.10;1.00;;;23.00;87.40;;;;;;4990961;28;20042;-65
2022/06/26 12:25:27;;;;;;;0.95;0.95;;;22.90;87.40;;;;;;4990204;28;20125;-64
2022/06/26 12:27:52;;;;;;;2.25;0.90;;;23.00;87.40;;;;;;4990954;28;20395;-65
2022/06/26 12:30:20;;;;;;;1.02;0.93;;;22.90;87.40;;;;;;4972792;28;20053;-65
2022/06/26 12:32:46;;;;;;;0.82;0.82;;;23.00;87.50;;;;;;4990762;28;20096;-64
2022/06/26 12:35:12;;;;;;;1.15;0.82;;;22.90;87.40;;;;;;4991057;28;20082;-65
2022/06/26 12:37:37;;;;;;;0.95;0.93;;;23.00;87.40;;;;;;4991299;28;20072;-64
2022/06/26 12:40:07;;;;;;;1.38;1.08;;;23.00;87.40;;;;;;4989542;28;20050;-64
2022/06/26 12:42:33;;;;;;;2.95;0.82;;;23.00;87.50;;;;;;4990670;28;20472;-65
2022/06/26 12:44:59;;;;;;;1.52;1.27;;;23.00;87.40;;;;;;4989742;28;20097;-64
2022/06/26 12:47:25;;;;;;;1.00;0.90;;;23.00;87.40;;;;;;4991155;28;20053;-65
2022/06/26 12:49:50;;;;;;;1.00;1.00;;;23.00;87.40;;;;;;4990503;28;20042;-64
2022/06/26 12:52:16;;;;;;;1.13;0.90;;;23.00;87.40;;;;;;4991165;28;20050;-64
2022/06/26 12:54:42;;;;;;;0.80;0.80;;;23.00;87.40;;;;;;4989584;28;20061;-63
2022/06/26 12:57:08;;;;;;;1.63;1.05;;;23.00;87.40;;;;;;4990972;28;20133;-64
2022/06/26 12:59:34;;;;;;;0.95;0.80;;;23.00;87.40;;;;;;4990096;28;20057;-64
2022/06/26 13:01:59;;;;;;;0.77;0.77;;;23.00;87.40;;;;;;4990404;28;20042;-64